createdAt,value
2019-03-27T00:00:45.757Z,4.83
2019-03-27T00:03:14.035Z,4.70
2019-03-27T00:05:42.240Z,4.83
2019-03-27T00:08:10.480Z,4.30
2019-03-27T00:10:38.979Z,5.07
2019-03-27T00:13:08.601Z,3.93
2019-03-27T00:15:36.964Z,4.40
2019-03-27T00:18:05.431Z,4.87
2019-03-27T00:20:33.937Z,4.30
2019-03-27T00:23:03.663Z,5.10
2019-03-27T00:25:31.919Z,4.83
2019-03-27T00:28:01.651Z,3.73
2019-03-27T00:30:29.903Z,4.30
2019-03-27T00:32:58.368Z,4.73
2019-03-27T00:35:28.238Z,4.13
2019-03-27T00:37:56.475Z,4.40
2019-03-27T00:40:24.861Z,3.93
2019-03-27T00:42:53.319Z,5.13
2019-03-27T00:45:26.962Z,4.90
2019-03-27T00:47:51.821Z,4.83
2019-03-27T00:50:20.330Z,4.97
2019-03-27T00:52:48.524Z,5.27
2019-03-27T00:55:17.431Z,4.47
2019-03-27T00:57:45.748Z,4.87
2019-03-27T01:00:28.849Z,5.73
2019-03-27T01:02:59.418Z,5.47
2019-03-27T01:05:27.636Z,4.60
2019-03-27T01:07:55.835Z,5.27
2019-03-27T01:10:24.052Z,4.97
2019-03-27T01:12:52.512Z,5.33
2019-03-27T01:15:20.996Z,5.30
2019-03-27T01:17:49.466Z,5.37
2019-03-27T01:20:17.961Z,4.37
2019-03-27T01:22:46.156Z,4.97
2019-03-27T01:25:16.040Z,5.60
2019-03-27T01:27:44.421Z,4.90
2019-03-27T01:30:12.920Z,5.10
2019-03-27T01:32:41.390Z,4.53
2019-03-27T01:35:11.505Z,4.87
2019-03-27T01:37:39.867Z,6.03
2019-03-27T01:40:08.832Z,5.40
2019-03-27T01:42:37.030Z,4.27
2019-03-27T01:45:09.539Z,5.33
2019-03-27T01:47:39.301Z,5.07
2019-03-27T01:50:07.884Z,5.10
2019-03-27T01:52:36.405Z,4.70
2019-03-27T01:55:07.227Z,5.30
2019-03-27T01:57:36.634Z,5.40
2019-03-27T02:00:06.722Z,4.67
2019-03-27T02:02:34.983Z,5.00
2019-03-27T02:05:04.088Z,4.67
2019-03-27T02:07:32.404Z,4.70
2019-03-27T02:10:00.898Z,4.47
2019-03-27T02:12:29.440Z,5.40
2019-03-27T02:14:57.849Z,5.53
2019-03-27T02:17:26.049Z,4.23
2019-03-27T02:19:54.553Z,5.03
2019-03-27T02:22:22.794Z,5.10
2019-03-27T02:24:51.279Z,4.90
2019-03-27T02:27:22.355Z,4.77
2019-03-27T02:29:51.955Z,5.43
2019-03-27T02:32:21.015Z,4.77
2019-03-27T02:34:50.316Z,4.53
2019-03-27T02:37:18.791Z,5.33
2019-03-27T02:39:48.301Z,4.03
2019-03-27T02:42:18.393Z,4.00
2019-03-27T02:44:46.824Z,7.57
2019-03-27T02:47:15.309Z,5.83
2019-03-27T02:49:43.782Z,5.13
2019-03-27T02:52:12.259Z,5.03
2019-03-27T02:54:40.722Z,5.47
2019-03-27T02:57:10.381Z,5.30
2019-03-27T02:59:40.185Z,5.93
2019-03-27T03:02:08.742Z,5.37
2019-03-27T03:04:37.207Z,5.40
2019-03-27T03:07:05.702Z,6.10
2019-03-27T03:09:33.907Z,6.20
2019-03-27T03:12:02.155Z,5.77
2019-03-27T03:14:30.628Z,4.50
2019-03-27T03:16:59.136Z,5.43
2019-03-27T03:19:27.574Z,5.97
2019-03-27T03:21:57.446Z,5.43
2019-03-27T03:24:27.277Z,5.50
2019-03-27T03:26:56.474Z,5.27
2019-03-27T03:29:24.675Z,5.83
2019-03-27T03:31:52.880Z,5.67
2019-03-27T03:34:21.105Z,5.97
2019-03-27T03:36:49.730Z,4.80
2019-03-27T03:39:19.476Z,6.20
2019-03-27T03:41:48.017Z,5.70
2019-03-27T03:44:16.228Z,5.33
2019-03-27T03:46:58.814Z,5.83
2019-03-27T03:49:15.262Z,5.30
2019-03-27T03:51:43.492Z,5.67
2019-03-27T03:54:11.953Z,6.03
2019-03-27T03:56:41.118Z,5.63
2019-03-27T03:59:11.457Z,5.53
2019-03-27T04:01:41.003Z,5.57
2019-03-27T04:04:09.711Z,6.20
2019-03-27T04:06:37.952Z,5.23
2019-03-27T04:09:07.152Z,5.73
2019-03-27T04:11:37.205Z,6.63
2019-03-27T04:14:05.435Z,5.63
2019-03-27T04:16:36.921Z,5.50
2019-03-27T04:19:05.459Z,6.00
2019-03-27T04:21:33.973Z,5.30
2019-03-27T04:24:02.248Z,5.60
2019-03-27T04:26:33.556Z,4.93
2019-03-27T04:29:02.064Z,5.60
2019-03-27T04:31:30.445Z,4.80
2019-03-27T04:33:58.654Z,5.67
2019-03-27T04:36:28.365Z,5.43
2019-03-27T04:38:58.223Z,5.93
2019-03-27T04:41:26.418Z,5.33
2019-03-27T04:43:54.897Z,5.87
2019-03-27T04:46:23.111Z,4.93
2019-03-27T04:48:51.396Z,5.50
2019-03-27T04:51:19.859Z,5.67
2019-03-27T04:53:48.307Z,4.90
2019-03-27T04:56:16.797Z,5.37
2019-03-27T04:58:45.272Z,5.10
2019-03-27T05:01:13.756Z,4.53
2019-03-27T05:03:41.952Z,5.53
2019-03-27T05:06:10.162Z,4.27
2019-03-27T05:08:38.359Z,4.60
2019-03-27T05:11:06.571Z,5.77
2019-03-27T05:13:39.018Z,4.50
2019-03-27T05:16:07.225Z,5.00
2019-03-27T05:18:35.427Z,6.57
2019-03-27T05:21:03.650Z,4.17
2019-03-27T05:23:31.850Z,4.90
2019-03-27T05:26:00.048Z,5.00
2019-03-27T05:28:28.260Z,4.73
2019-03-27T05:30:56.462Z,5.03
2019-03-27T05:33:24.673Z,3.97
2019-03-27T05:35:52.868Z,5.67
2019-03-27T05:38:21.093Z,5.40
2019-03-27T05:40:50.918Z,3.73
2019-03-27T05:43:19.125Z,4.83
2019-03-27T05:45:47.570Z,4.57
2019-03-27T05:48:15.789Z,5.10
2019-03-27T05:50:43.988Z,4.03
2019-03-27T05:53:12.188Z,5.10
2019-03-27T05:55:40.398Z,4.27
2019-03-27T05:58:08.597Z,3.30
2019-03-27T06:00:36.808Z,3.50
2019-03-27T06:03:05.008Z,4.40
2019-03-27T06:05:33.301Z,3.37
2019-03-27T06:08:01.497Z,3.77
2019-03-27T06:10:29.705Z,3.53
2019-03-27T06:12:57.909Z,3.33
2019-03-27T06:15:25.941Z,3.43
2019-03-27T06:17:54.141Z,3.00
2019-03-27T06:20:22.361Z,2.50
2019-03-27T06:22:50.561Z,3.40
2019-03-27T06:25:18.782Z,3.13
2019-03-27T06:27:47.043Z,2.63
2019-03-27T06:30:15.247Z,3.33
2019-03-27T06:32:43.441Z,3.40
2019-03-27T06:35:12.529Z,2.73
2019-03-27T06:37:40.730Z,2.57
2019-03-27T06:40:08.933Z,3.17
2019-03-27T06:42:38.307Z,3.40
2019-03-27T06:45:06.585Z,3.33
2019-03-27T06:47:34.775Z,2.30
2019-03-27T06:50:02.981Z,2.57
2019-03-27T06:52:31.166Z,3.23
2019-03-27T06:55:00.101Z,2.90
2019-03-27T06:57:28.289Z,2.97
2019-03-27T06:59:56.499Z,2.30
2019-03-27T07:02:28.610Z,2.40
2019-03-27T07:04:55.297Z,2.27
2019-03-27T07:07:25.366Z,2.33
2019-03-27T07:09:53.582Z,2.40
2019-03-27T07:12:21.793Z,2.23
2019-03-27T07:14:49.988Z,2.47
2019-03-27T07:17:18.274Z,3.50
2019-03-27T07:19:46.473Z,2.27
2019-03-27T07:22:14.688Z,2.40
2019-03-27T07:24:42.880Z,2.50
2019-03-27T07:27:11.082Z,2.47
2019-03-27T07:29:39.282Z,2.43
2019-03-27T07:32:07.497Z,3.03
2019-03-27T07:34:35.697Z,2.67
2019-03-27T07:37:03.904Z,2.70
2019-03-27T07:39:32.271Z,2.63
2019-03-27T07:42:00.489Z,2.23
2019-03-27T07:44:28.687Z,2.33
2019-03-27T07:46:56.887Z,2.37
2019-03-27T07:49:25.093Z,2.70
2019-03-27T07:51:53.305Z,2.03
2019-03-27T07:54:21.504Z,3.20
2019-03-27T07:56:49.955Z,3.13
2019-03-27T07:59:18.167Z,3.20
2019-03-27T08:01:46.366Z,2.70
2019-03-27T08:04:15.742Z,2.30
2019-03-27T08:06:43.941Z,2.00
2019-03-27T08:09:12.150Z,2.93
2019-03-27T08:11:40.562Z,3.00
2019-03-27T08:14:08.740Z,2.93
2019-03-27T08:16:36.946Z,2.90
2019-03-27T08:19:07.783Z,3.40
2019-03-27T08:21:35.063Z,3.43
2019-03-27T08:24:03.281Z,2.73
2019-03-27T08:26:31.478Z,2.53
2019-03-27T08:29:00.857Z,3.00
2019-03-27T08:31:29.052Z,2.23
2019-03-27T08:33:57.247Z,2.70
2019-03-27T08:36:25.924Z,2.80
2019-03-27T08:38:54.370Z,2.90
2019-03-27T08:41:22.821Z,2.70
2019-03-27T08:43:53.159Z,2.90
2019-03-27T08:46:21.373Z,3.23
2019-03-27T08:48:49.655Z,3.03
2019-03-27T08:51:18.819Z,3.47
2019-03-27T08:53:47.013Z,3.70
2019-03-27T08:56:15.219Z,2.80
2019-03-27T08:58:43.429Z,2.20
2019-03-27T09:01:11.644Z,3.17
2019-03-27T09:03:39.836Z,2.87
2019-03-27T09:06:08.045Z,3.30
2019-03-27T09:08:36.242Z,2.80
2019-03-27T09:11:04.941Z,2.77
2019-03-27T09:13:33.141Z,2.63
2019-03-27T09:16:01.359Z,2.60
2019-03-27T09:18:29.550Z,3.23
2019-03-27T09:20:57.752Z,3.43
2019-03-27T09:23:25.961Z,2.93
2019-03-27T09:25:54.173Z,2.90
2019-03-27T09:28:22.572Z,3.40
2019-03-27T09:30:50.771Z,3.27
2019-03-27T09:33:18.986Z,3.47
2019-03-27T09:35:47.224Z,3.97
2019-03-27T09:38:16.803Z,3.83
2019-03-27T09:40:45.005Z,3.43
2019-03-27T09:43:13.219Z,4.13
2019-03-27T09:45:41.416Z,3.13
2019-03-27T09:48:09.640Z,3.70
2019-03-27T09:50:37.833Z,3.37
2019-03-27T09:53:06.037Z,3.60
2019-03-27T09:55:34.250Z,3.50
2019-03-27T09:58:03.810Z,3.10
2019-03-27T10:00:50.356Z,3.27
2019-03-27T10:03:19.021Z,3.50
2019-03-27T10:05:47.224Z,2.53
2019-03-27T10:08:15.426Z,2.37
2019-03-27T10:10:43.633Z,2.57
2019-03-27T10:13:11.828Z,2.97
2019-03-27T10:15:40.041Z,2.67
2019-03-27T10:18:08.237Z,2.93
2019-03-27T10:20:36.452Z,3.17
2019-03-27T10:23:04.663Z,3.40
2019-03-27T10:25:32.876Z,2.57
2019-03-27T10:28:02.704Z,2.40
2019-03-27T10:30:30.912Z,2.10
2019-03-27T10:32:59.577Z,2.30
2019-03-27T10:35:27.780Z,2.83
2019-03-27T10:37:55.975Z,2.30
2019-03-27T10:40:24.194Z,2.37
2019-03-27T10:42:52.394Z,2.40
2019-03-27T10:45:20.598Z,2.50
2019-03-27T10:47:48.804Z,2.53
2019-03-27T10:50:18.174Z,2.97
2019-03-27T10:52:46.473Z,2.83
2019-03-27T10:55:14.679Z,2.80
2019-03-27T10:57:42.895Z,2.73
2019-03-27T11:00:11.658Z,3.00
2019-03-27T11:02:39.845Z,3.20
2019-03-27T11:05:10.087Z,2.90
2019-03-27T11:07:39.932Z,3.37
2019-03-27T11:10:08.388Z,3.13
2019-03-27T11:12:36.610Z,3.60
2019-03-27T11:15:06.945Z,3.60
2019-03-27T11:17:36.167Z,3.30
2019-03-27T11:20:05.415Z,3.40
2019-03-27T11:22:34.579Z,3.30
2019-03-27T11:25:02.779Z,3.70
2019-03-27T11:27:31.753Z,3.93
2019-03-27T11:30:00.381Z,3.50
2019-03-27T11:32:29.523Z,3.60
2019-03-27T11:34:57.972Z,3.73
2019-03-27T11:37:26.174Z,4.20
2019-03-27T11:39:54.370Z,3.60
2019-03-27T11:42:22.578Z,4.43
2019-03-27T11:44:51.239Z,4.30
2019-03-27T11:47:20.808Z,4.83
2019-03-27T11:49:49.009Z,4.73
2019-03-27T11:52:17.204Z,4.63
2019-03-27T11:54:45.414Z,4.70
2019-03-27T11:57:13.614Z,4.90
2019-03-27T11:59:53.202Z,5.00
2019-03-27T12:02:11.749Z,4.97
2019-03-27T12:04:39.959Z,4.70
2019-03-27T12:07:08.157Z,5.10
2019-03-27T12:09:37.997Z,5.13
2019-03-27T12:12:07.660Z,5.33
2019-03-27T12:14:35.878Z,6.13
2019-03-27T12:17:04.071Z,6.40
2019-03-27T12:19:32.287Z,5.73
2019-03-27T12:22:00.476Z,6.40
2019-03-27T12:24:29.918Z,6.37
2019-03-27T12:26:58.441Z,5.90
2019-03-27T12:29:26.655Z,6.10
2019-03-27T12:31:54.855Z,6.20
2019-03-27T12:34:23.069Z,6.00
2019-03-27T12:36:51.264Z,5.70
2019-03-27T12:39:19.466Z,6.60
2019-03-27T12:41:48.240Z,6.40
2019-03-27T12:44:17.633Z,6.03
2019-03-27T12:46:45.854Z,6.57
2019-03-27T12:49:14.050Z,5.67
2019-03-27T12:51:42.259Z,6.53
2019-03-27T12:54:10.711Z,5.87
2019-03-27T12:56:38.917Z,5.60
2019-03-27T12:59:07.114Z,5.50
2019-03-27T13:01:35.567Z,5.20
2019-03-27T13:04:04.037Z,5.30
2019-03-27T13:06:32.233Z,5.93
2019-03-27T13:09:00.435Z,5.07
2019-03-27T13:11:28.644Z,5.30
2019-03-27T13:13:56.847Z,5.93
2019-03-27T13:16:25.139Z,5.00
2019-03-27T13:18:53.340Z,4.80
2019-03-27T13:21:26.653Z,5.00
2019-03-27T13:23:52.597Z,4.87
2019-03-27T13:26:21.067Z,4.37
2019-03-27T13:28:49.490Z,3.53
2019-03-27T13:31:17.649Z,4.20
2019-03-27T13:33:46.112Z,4.50
2019-03-27T13:36:14.699Z,3.87
2019-03-27T13:38:44.529Z,3.90
2019-03-27T13:41:12.726Z,4.03
2019-03-27T13:43:40.944Z,3.40
2019-03-27T13:46:09.675Z,2.60
2019-03-27T13:48:37.893Z,3.37
2019-03-27T13:51:06.089Z,3.17
2019-03-27T13:53:34.308Z,3.20
2019-03-27T13:56:02.509Z,2.43
2019-03-27T13:58:30.719Z,2.97
2019-03-27T14:00:58.912Z,2.37
2019-03-27T14:03:27.589Z,2.50
2019-03-27T14:05:56.771Z,2.70
2019-03-27T14:08:25.758Z,2.90
2019-03-27T14:10:54.006Z,2.97
2019-03-27T14:13:24.068Z,2.70
2019-03-27T14:15:52.259Z,2.73
2019-03-27T14:18:20.507Z,2.77
2019-03-27T14:20:48.964Z,3.10
2019-03-27T14:23:17.170Z,3.27
2019-03-27T14:25:45.416Z,3.20
2019-03-27T14:28:15.545Z,4.43
2019-03-27T14:30:54.145Z,3.37
2019-03-27T14:33:24.233Z,4.07
2019-03-27T14:35:52.653Z,4.10
2019-03-27T14:38:20.884Z,3.57
2019-03-27T14:40:49.673Z,3.40
2019-03-27T14:43:17.886Z,3.70
2019-03-27T14:45:46.087Z,3.90
2019-03-27T14:48:14.567Z,4.63
2019-03-27T14:50:42.772Z,7.10
2019-03-27T14:53:11.421Z,5.73
2019-03-27T14:55:39.620Z,5.23
2019-03-27T14:58:09.073Z,6.13
2019-03-27T15:00:37.469Z,5.50
2019-03-27T15:03:05.683Z,4.50
2019-03-27T15:05:33.883Z,4.27
2019-03-27T15:08:04.163Z,4.10
2019-03-27T15:10:32.422Z,4.50
2019-03-27T15:13:01.092Z,3.87
2019-03-27T15:15:29.449Z,4.00
2019-03-27T15:17:57.874Z,3.80
2019-03-27T15:20:26.340Z,4.23
2019-03-27T15:22:54.835Z,4.57
2019-03-27T15:25:24.332Z,4.47
2019-03-27T15:27:52.823Z,4.70
2019-03-27T15:30:21.341Z,4.03
2019-03-27T15:32:49.799Z,5.10
2019-03-27T15:35:18.257Z,4.50
2019-03-27T15:37:46.472Z,4.37
2019-03-27T15:40:17.956Z,4.17
2019-03-27T15:42:46.268Z,4.10
2019-03-27T15:45:14.739Z,4.40
2019-03-27T15:47:43.263Z,4.70
2019-03-27T15:50:11.939Z,4.73
2019-03-27T15:52:40.152Z,4.73
2019-03-27T15:55:08.669Z,4.40
2019-03-27T15:57:37.170Z,4.37
2019-03-27T16:00:05.864Z,4.00
2019-03-27T16:02:34.013Z,3.73
2019-03-27T16:05:04.227Z,3.97
2019-03-27T16:07:32.622Z,4.00
2019-03-27T16:10:01.111Z,4.40
2019-03-27T16:12:29.301Z,5.03
2019-03-27T16:14:58.539Z,4.87
2019-03-27T16:17:26.843Z,6.30
2019-03-27T16:19:55.505Z,4.37
2019-03-27T16:22:23.741Z,5.23
2019-03-27T16:24:51.970Z,5.87
2019-03-27T16:27:20.177Z,5.17
2019-03-27T16:29:48.424Z,4.73
2019-03-27T16:32:17.624Z,5.80
2019-03-27T16:34:45.899Z,5.27
2019-03-27T16:37:14.392Z,5.00
2019-03-27T16:39:42.859Z,4.90
2019-03-27T16:42:11.350Z,5.63
2019-03-27T16:44:39.541Z,5.07
2019-03-27T16:47:08.316Z,5.00
2019-03-27T16:49:36.804Z,4.80
2019-03-27T16:52:05.273Z,5.20
2019-03-27T16:54:33.768Z,5.03
2019-03-27T16:57:03.040Z,5.63
2019-03-27T16:59:31.250Z,6.77
2019-03-27T17:01:59.697Z,5.47
2019-03-27T17:04:28.203Z,5.80
2019-03-27T17:06:56.674Z,5.07
2019-03-27T17:09:26.009Z,5.90
2019-03-27T17:11:54.197Z,6.23
2019-03-27T17:14:22.653Z,6.70
2019-03-27T17:16:50.848Z,6.20
2019-03-27T17:19:19.085Z,5.30
2019-03-27T17:21:47.287Z,5.43
2019-03-27T17:24:15.542Z,5.57
2019-03-27T17:26:44.014Z,4.57
2019-03-27T17:29:12.511Z,5.90
2019-03-27T17:31:40.976Z,5.23
2019-03-27T17:34:09.467Z,6.10
2019-03-27T17:36:38.400Z,4.67
2019-03-27T17:39:08.163Z,5.10
2019-03-27T17:41:36.512Z,5.13
2019-03-27T17:44:05.488Z,5.43
2019-03-27T17:46:33.686Z,5.97
2019-03-27T17:49:01.901Z,5.33
2019-03-27T17:51:30.109Z,5.83
2019-03-27T17:53:58.316Z,5.00
2019-03-27T17:56:26.544Z,5.90
2019-03-27T17:58:54.719Z,6.73
2019-03-27T18:01:23.834Z,6.17
2019-03-27T18:03:53.245Z,6.53
2019-03-27T18:06:21.442Z,6.33
2019-03-27T18:08:49.678Z,5.60
2019-03-27T18:11:17.883Z,5.83
2019-03-27T18:13:46.100Z,5.93
2019-03-27T18:16:17.015Z,8.47
2019-03-27T18:18:44.237Z,6.33
2019-03-27T18:21:12.437Z,6.30
2019-03-27T18:23:46.208Z,6.60
2019-03-27T18:26:10.573Z,6.27
2019-03-27T18:28:38.770Z,6.17
2019-03-27T18:31:08.611Z,5.93
2019-03-27T18:33:36.812Z,7.17
2019-03-27T18:36:05.025Z,6.37
2019-03-27T18:38:34.589Z,7.30
2019-03-27T18:41:02.807Z,7.10
2019-03-27T18:43:32.400Z,6.60
2019-03-27T18:46:00.621Z,6.93
2019-03-27T18:48:28.824Z,6.23
2019-03-27T18:50:57.053Z,6.80
2019-03-27T18:53:25.220Z,7.43
2019-03-27T18:55:53.457Z,7.83
2019-03-27T18:58:21.633Z,6.07
2019-03-27T19:00:49.851Z,7.13
2019-03-27T19:03:18.060Z,7.17
2019-03-27T19:05:46.251Z,8.97
2019-03-27T19:08:16.086Z,8.90
2019-03-27T19:10:44.282Z,8.27
2019-03-27T19:13:12.493Z,7.57
2019-03-27T19:15:40.691Z,6.83
2019-03-27T19:18:08.907Z,7.33
2019-03-27T19:20:37.112Z,6.73
2019-03-27T19:23:05.328Z,7.70
2019-03-27T19:25:33.531Z,6.80
2019-03-27T19:28:01.747Z,8.27
2019-03-27T19:30:29.953Z,7.37
2019-03-27T19:32:58.162Z,8.57
2019-03-27T19:35:26.360Z,7.90
2019-03-27T19:37:54.593Z,7.80
2019-03-27T19:40:24.423Z,8.27
2019-03-27T19:42:52.633Z,8.73
2019-03-27T19:45:20.910Z,10.10
2019-03-27T19:47:49.117Z,8.10
2019-03-27T19:50:17.315Z,9.10
2019-03-27T19:52:45.537Z,9.57
2019-03-27T19:55:13.745Z,9.33
2019-03-27T19:57:43.966Z,10.03
2019-03-27T20:00:12.178Z,9.87
2019-03-27T20:02:40.381Z,9.80
2019-03-27T20:05:08.607Z,10.03
2019-03-27T20:07:36.833Z,9.37
2019-03-27T20:10:07.177Z,11.07
2019-03-27T20:16:38.101Z,10.17
2019-03-27T20:19:06.317Z,12.27
2019-03-27T20:21:34.516Z,11.23
2019-03-27T20:24:02.735Z,11.33
2019-03-27T20:26:31.500Z,12.17
2019-03-27T20:28:59.789Z,11.30
2019-03-27T20:31:27.987Z,10.90
2019-03-27T20:33:56.218Z,11.70
2019-03-27T20:36:24.430Z,13.03
2019-03-27T20:38:52.644Z,11.70
2019-03-27T20:41:20.852Z,14.03
2019-03-27T20:43:49.051Z,11.93
2019-03-27T20:46:24.844Z,12.83
2019-03-27T20:48:47.196Z,11.97
2019-03-27T20:51:15.414Z,11.87
2019-03-27T20:53:43.629Z,12.20
2019-03-27T20:56:11.841Z,11.80
2019-03-27T20:58:40.044Z,10.93
2019-03-27T21:01:08.262Z,11.90
2019-03-27T21:03:36.465Z,11.50
2019-03-27T21:06:04.678Z,10.73
2019-03-27T21:08:32.766Z,11.43
2019-03-27T21:11:00.982Z,12.00
2019-03-27T21:13:29.201Z,11.30
2019-03-27T21:15:57.401Z,12.30
2019-03-27T21:18:25.618Z,10.50
2019-03-27T21:20:53.934Z,11.67
2019-03-27T21:23:22.426Z,10.37
2019-03-27T21:25:51.068Z,11.50
2019-03-27T21:28:19.388Z,10.63
2019-03-27T21:30:47.869Z,10.37
2019-03-27T21:33:17.723Z,10.30
2019-03-27T21:35:45.928Z,9.83
2019-03-27T21:38:14.126Z,10.13
2019-03-27T21:40:42.342Z,9.60
2019-03-27T21:43:11.950Z,9.47
2019-03-27T21:45:40.278Z,9.87
2019-03-27T21:48:08.956Z,9.77
2019-03-27T21:50:37.160Z,10.03
2019-03-27T21:53:05.721Z,9.70
2019-03-27T21:55:42.706Z,9.97
2019-03-27T21:58:07.136Z,10.33
2019-03-27T22:00:41.405Z,9.77
2019-03-27T22:03:09.919Z,11.07
2019-03-27T22:05:38.266Z,10.57
2019-03-27T22:08:06.471Z,10.17
2019-03-27T22:10:34.834Z,10.40
2019-03-27T22:13:03.365Z,10.70
2019-03-27T22:15:31.796Z,10.60
2019-03-27T22:18:00.253Z,10.90
2019-03-27T22:20:28.465Z,10.97
2019-03-27T22:22:56.721Z,11.63
2019-03-27T22:25:35.457Z,11.07
2019-03-27T22:27:55.218Z,11.50
2019-03-27T22:30:23.722Z,11.17
2019-03-27T22:32:51.930Z,10.37
2019-03-27T22:35:21.120Z,10.83
2019-03-27T22:37:49.666Z,10.07
2019-03-27T22:40:18.136Z,9.93
2019-03-27T22:42:46.351Z,10.53
2019-03-27T22:45:14.551Z,11.63
2019-03-27T22:47:43.090Z,10.60
2019-03-27T22:50:11.567Z,11.10
2019-03-27T22:52:39.796Z,11.40
2019-03-27T22:55:08.363Z,10.10
2019-03-27T22:57:36.584Z,11.97
2019-03-27T23:00:08.288Z,12.27
2019-03-27T23:02:37.790Z,10.90
2019-03-27T23:05:06.691Z,11.87
2019-03-27T23:07:35.023Z,12.47
2019-03-27T23:10:05.592Z,11.93
2019-03-27T23:12:34.050Z,12.83
2019-03-27T23:15:04.147Z,11.40
2019-03-27T23:17:32.371Z,12.80
2019-03-27T23:20:00.578Z,13.03
2019-03-27T23:22:28.799Z,11.70
2019-03-27T23:24:57.016Z,12.27
2019-03-27T23:27:25.679Z,11.97
2019-03-27T23:29:53.927Z,11.80
2019-03-27T23:32:22.397Z,12.20
2019-03-27T23:34:50.618Z,10.33
2019-03-27T23:37:18.840Z,11.77
2019-03-27T23:39:47.340Z,10.90
2019-03-27T23:42:16.365Z,10.30
2019-03-27T23:44:46.160Z,11.70
2019-03-27T23:47:14.375Z,10.37
2019-03-27T23:49:42.814Z,12.30
2019-03-27T23:52:11.166Z,10.30
2019-03-27T23:54:39.381Z,10.57
2019-03-27T23:57:07.572Z,10.40
2019-03-27T23:59:35.798Z,10.90
